createdAt,value
2022-07-31T00:01:21.226Z,2.40
2022-07-31T00:03:48.037Z,3.13
2022-07-31T00:06:14.968Z,2.40
2022-07-31T00:08:41.541Z,2.30
2022-07-31T00:11:11.479Z,2.87
2022-07-31T00:13:57.236Z,2.60
2022-07-31T00:16:25.603Z,3.17
2022-07-31T00:18:52.289Z,2.73
2022-07-31T00:21:19.004Z,2.63
2022-07-31T00:23:45.844Z,2.70
2022-07-31T00:26:12.432Z,2.60
2022-07-31T00:28:39.327Z,2.60
2022-07-31T00:31:05.951Z,2.77
2022-07-31T00:33:32.548Z,2.13
2022-07-31T00:35:59.168Z,2.60
2022-07-31T00:38:27.645Z,2.90
2022-07-31T00:40:54.676Z,2.73
2022-07-31T00:43:21.364Z,2.93
2022-07-31T00:45:56.251Z,2.70
2022-07-31T00:48:26.447Z,2.80
2022-07-31T00:50:54.797Z,3.30
2022-07-31T00:53:21.392Z,3.00
2022-07-31T00:55:51.641Z,3.13
2022-07-31T00:58:19.546Z,3.30
2022-07-31T01:00:46.488Z,3.13
2022-07-31T01:03:13.276Z,3.33
2022-07-31T01:05:39.908Z,2.87
2022-07-31T01:08:06.530Z,3.20
2022-07-31T01:10:42.129Z,3.30
2022-07-31T01:13:21.936Z,3.13
2022-07-31T01:15:50.061Z,2.80
2022-07-31T01:18:17.355Z,2.87
2022-07-31T01:20:46.582Z,2.80
2022-07-31T01:23:41.636Z,3.43
2022-07-31T01:26:28.712Z,3.20
2022-07-31T01:29:09.831Z,3.93
2022-07-31T01:31:41.612Z,4.00
2022-07-31T01:34:16.037Z,3.10
2022-07-31T01:36:52.074Z,3.07
2022-07-31T01:39:18.937Z,3.60
2022-07-31T01:41:47.851Z,3.57
2022-07-31T01:44:17.581Z,3.43
2022-07-31T01:46:45.609Z,3.60
2022-07-31T01:49:14.468Z,3.27
2022-07-31T01:51:43.041Z,3.03
2022-07-31T01:54:11.544Z,3.40
2022-07-31T01:56:40.125Z,3.57
2022-07-31T01:59:19.955Z,3.67
2022-07-31T02:01:50.886Z,3.20
2022-07-31T02:04:19.622Z,3.53
2022-07-31T02:06:48.776Z,3.27
2022-07-31T02:09:17.705Z,3.77
2022-07-31T02:11:53.310Z,3.63
2022-07-31T02:14:22.664Z,3.73
2022-07-31T02:16:50.006Z,3.70
2022-07-31T02:19:17.280Z,3.30
2022-07-31T02:21:44.045Z,3.70
2022-07-31T02:24:10.714Z,3.43
2022-07-31T02:26:40.113Z,3.30
2022-07-31T02:29:19.431Z,3.50
2022-07-31T02:31:48.811Z,3.67
2022-07-31T02:38:18.069Z,3.80
2022-07-31T02:40:52.439Z,3.83
2022-07-31T02:43:20.361Z,3.43
2022-07-31T02:45:47.767Z,3.50
2022-07-31T02:48:14.755Z,3.20
2022-07-31T02:50:42.481Z,3.23
2022-07-31T02:53:09.161Z,3.53
2022-07-31T02:55:36.822Z,3.23
2022-07-31T02:58:03.620Z,3.87
2022-07-31T03:00:30.860Z,3.50
2022-07-31T03:02:58.192Z,3.37
2022-07-31T03:05:25.008Z,3.30
2022-07-31T03:07:51.743Z,3.70
2022-07-31T03:10:18.835Z,3.03
2022-07-31T03:12:52.373Z,3.63
2022-07-31T03:15:20.850Z,3.50
2022-07-31T03:17:48.998Z,3.50
2022-07-31T03:20:16.193Z,3.43
2022-07-31T03:22:43.527Z,3.50
2022-07-31T03:25:10.521Z,3.23
2022-07-31T03:27:38.007Z,3.60
2022-07-31T03:30:06.606Z,3.50
2022-07-31T03:32:35.538Z,3.33
2022-07-31T03:35:02.376Z,3.40
2022-07-31T03:37:29.013Z,3.10
2022-07-31T03:39:55.593Z,3.50
2022-07-31T03:42:22.929Z,3.90
2022-07-31T03:44:49.950Z,3.57
2022-07-31T03:47:16.776Z,3.13
2022-07-31T03:49:44.008Z,3.10
2022-07-31T03:52:12.537Z,3.43
2022-07-31T03:54:40.114Z,3.63
2022-07-31T03:57:08.513Z,3.10
2022-07-31T03:59:40.490Z,3.10
2022-07-31T04:02:14.742Z,3.50
2022-07-31T04:04:44.439Z,3.10
2022-07-31T04:07:11.063Z,3.37
2022-07-31T04:09:38.535Z,3.10
2022-07-31T04:12:06.139Z,3.00
2022-07-31T04:14:33.016Z,3.40
2022-07-31T04:16:59.707Z,3.40
2022-07-31T04:19:26.531Z,3.40
2022-07-31T04:21:53.100Z,2.90
2022-07-31T04:24:21.626Z,3.20
2022-07-31T04:26:49.331Z,3.20
2022-07-31T04:29:16.033Z,3.27
2022-07-31T04:31:42.745Z,3.03
2022-07-31T04:34:09.321Z,3.20
2022-07-31T04:36:35.967Z,2.90
2022-07-31T04:39:02.960Z,3.53
2022-07-31T04:41:29.761Z,3.53
2022-07-31T04:44:00.085Z,3.87
2022-07-31T04:46:26.905Z,3.27
2022-07-31T04:48:53.526Z,3.30
2022-07-31T04:51:23.190Z,3.40
2022-07-31T04:53:50.861Z,3.07
2022-07-31T04:56:34.007Z,3.63
2022-07-31T04:59:03.093Z,3.63
2022-07-31T05:01:30.401Z,3.33
2022-07-31T05:03:58.029Z,3.20
2022-07-31T05:06:33.510Z,3.90
2022-07-31T05:09:01.719Z,3.30
2022-07-31T05:11:31.421Z,3.03
2022-07-31T05:13:59.998Z,3.87
2022-07-31T05:16:28.472Z,3.97
2022-07-31T05:18:55.554Z,3.73
2022-07-31T05:21:23.404Z,3.70
2022-07-31T05:23:50.318Z,3.50
2022-07-31T05:26:18.862Z,3.20
2022-07-31T05:28:46.432Z,3.90
2022-07-31T05:31:13.667Z,3.83
2022-07-31T05:33:40.379Z,4.03
2022-07-31T05:36:07.625Z,3.70
2022-07-31T05:38:34.986Z,3.87
2022-07-31T05:41:01.648Z,4.40
2022-07-31T05:43:28.287Z,4.40
2022-07-31T05:45:55.338Z,4.43
2022-07-31T05:48:22.225Z,4.23
2022-07-31T05:50:50.385Z,4.00
2022-07-31T05:53:18.494Z,3.97
2022-07-31T05:55:47.271Z,4.70
2022-07-31T05:58:16.786Z,4.23
2022-07-31T06:00:45.075Z,4.40
2022-07-31T06:03:15.361Z,5.20
2022-07-31T06:05:42.520Z,4.80
2022-07-31T06:08:09.839Z,5.30
2022-07-31T06:10:37.514Z,4.50
2022-07-31T06:13:05.056Z,4.50
2022-07-31T06:15:36.301Z,4.73
2022-07-31T06:18:04.007Z,5.13
2022-07-31T06:20:30.739Z,3.97
2022-07-31T06:22:57.568Z,4.80
2022-07-31T06:25:24.651Z,4.57
2022-07-31T06:27:59.348Z,4.83
2022-07-31T06:30:27.700Z,5.70
2022-07-31T06:32:54.286Z,4.03
2022-07-31T06:35:21.126Z,3.70
2022-07-31T06:37:47.769Z,4.13
2022-07-31T06:40:14.528Z,4.77
2022-07-31T06:42:41.786Z,4.03
2022-07-31T06:45:09.313Z,4.33
2022-07-31T06:47:35.975Z,5.20
2022-07-31T06:50:06.096Z,6.50
2022-07-31T06:52:32.680Z,4.77
2022-07-31T06:55:01.067Z,5.90
2022-07-31T06:57:27.693Z,6.20
2022-07-31T06:59:54.353Z,6.33
2022-07-31T07:02:20.967Z,3.53
2022-07-31T07:04:58.501Z,3.73
2022-07-31T07:07:36.195Z,6.30
2022-07-31T07:10:03.185Z,7.00
2022-07-31T07:12:29.857Z,6.40
2022-07-31T07:14:56.518Z,5.50
2022-07-31T07:17:28.601Z,4.20
2022-07-31T07:19:55.936Z,6.00
2022-07-31T07:22:31.454Z,4.77
2022-07-31T07:24:59.665Z,8.90
2022-07-31T07:27:26.373Z,8.13
2022-07-31T07:29:53.061Z,5.40
2022-07-31T07:32:19.643Z,8.43
2022-07-31T07:34:46.265Z,4.80
2022-07-31T07:37:12.846Z,5.27
2022-07-31T07:39:39.459Z,4.50
2022-07-31T07:42:06.559Z,5.10
2022-07-31T07:44:33.302Z,5.90
2022-07-31T07:46:59.909Z,8.33
2022-07-31T07:49:26.585Z,9.10
2022-07-31T07:52:10.088Z,7.57
2022-07-31T07:54:37.012Z,8.13
2022-07-31T07:57:03.757Z,6.50
2022-07-31T07:59:30.404Z,10.20
2022-07-31T08:01:56.970Z,9.77
2022-07-31T08:04:23.586Z,9.03
2022-07-31T08:06:50.202Z,6.10
2022-07-31T08:09:16.837Z,7.77
2022-07-31T08:11:43.424Z,7.13
2022-07-31T08:14:10.236Z,5.83
2022-07-31T08:16:42.103Z,5.50
2022-07-31T08:19:08.947Z,7.73
2022-07-31T08:21:35.692Z,7.70
2022-07-31T08:24:02.331Z,5.30
2022-07-31T08:26:52.049Z,8.03
2022-07-31T08:29:18.744Z,6.87
2022-07-31T08:31:54.227Z,8.17
2022-07-31T08:34:30.860Z,5.93
2022-07-31T08:36:59.066Z,6.20
2022-07-31T08:39:25.765Z,6.53
2022-07-31T08:41:52.385Z,5.60
2022-07-31T08:44:19.262Z,5.77
2022-07-31T08:46:58.258Z,5.20
2022-07-31T08:49:27.522Z,5.70
2022-07-31T08:51:57.142Z,4.80
2022-07-31T08:54:26.198Z,4.03
2022-07-31T08:56:53.777Z,3.50
2022-07-31T08:59:21.798Z,4.40
2022-07-31T09:01:48.474Z,3.97
2022-07-31T09:04:15.152Z,3.97
2022-07-31T09:06:41.741Z,3.80
2022-07-31T09:09:08.378Z,3.17
2022-07-31T09:11:45.210Z,3.30
2022-07-31T09:14:13.360Z,3.83
2022-07-31T09:16:50.105Z,3.67
2022-07-31T09:19:54.244Z,3.63
2022-07-31T09:22:26.986Z,2.93
2022-07-31T09:24:53.906Z,3.33
2022-07-31T09:27:27.479Z,4.07
2022-07-31T09:29:57.108Z,4.57
2022-07-31T09:32:23.960Z,3.70
2022-07-31T09:34:50.739Z,3.17
2022-07-31T09:37:25.049Z,5.23
2022-07-31T09:39:52.966Z,7.30
2022-07-31T09:42:20.413Z,6.80
2022-07-31T09:44:49.121Z,5.70
2022-07-31T09:47:28.809Z,6.20
2022-07-31T09:49:58.178Z,6.93
2022-07-31T09:52:26.822Z,5.50
2022-07-31T09:55:16.889Z,7.27
2022-07-31T09:57:54.972Z,8.17
2022-07-31T10:00:22.498Z,6.27
2022-07-31T10:02:50.082Z,6.90
2022-07-31T10:05:18.060Z,7.37
2022-07-31T10:07:46.627Z,6.50
2022-07-31T10:10:14.052Z,8.20
2022-07-31T10:12:44.884Z,6.43
2022-07-31T10:15:14.037Z,5.20
2022-07-31T10:17:47.098Z,6.73
2022-07-31T10:20:21.690Z,6.40
2022-07-31T10:22:56.744Z,5.80
2022-07-31T10:25:28.902Z,7.07
2022-07-31T10:27:57.224Z,7.13
2022-07-31T10:30:27.998Z,5.93
2022-07-31T10:32:55.675Z,7.10
2022-07-31T10:35:22.653Z,6.00
2022-07-31T10:38:01.191Z,6.10
2022-07-31T10:40:49.535Z,5.50
2022-07-31T10:43:35.399Z,5.83
2022-07-31T10:46:02.492Z,4.80
2022-07-31T10:48:29.089Z,6.07
2022-07-31T10:51:07.272Z,5.40
2022-07-31T10:53:50.246Z,5.50
2022-07-31T10:56:20.630Z,5.03
2022-07-31T10:58:51.575Z,4.57
2022-07-31T11:01:18.338Z,4.10
2022-07-31T11:03:47.385Z,4.30
2022-07-31T11:06:16.072Z,4.37
2022-07-31T11:08:44.986Z,3.50
2022-07-31T11:11:12.485Z,3.60
2022-07-31T11:13:47.236Z,4.30
2022-07-31T11:16:13.923Z,4.20
2022-07-31T11:18:40.792Z,3.40
2022-07-31T11:21:37.588Z,3.53
2022-07-31T11:24:03.047Z,3.70
2022-07-31T11:26:33.760Z,3.90
2022-07-31T11:29:57.691Z,3.17
2022-07-31T11:32:00.188Z,3.23
2022-07-31T11:34:26.829Z,3.70
2022-07-31T11:36:53.518Z,4.13
2022-07-31T11:39:21.990Z,5.87
2022-07-31T11:42:04.475Z,6.73
2022-07-31T11:44:31.299Z,14.50
2022-07-31T11:46:57.910Z,4.47
2022-07-31T11:49:41.666Z,4.30
2022-07-31T11:52:30.229Z,5.30
2022-07-31T11:55:09.559Z,7.90
2022-07-31T11:57:51.326Z,5.23
2022-07-31T12:00:26.671Z,4.10
2022-07-31T12:02:54.657Z,4.40
2022-07-31T12:05:37.580Z,4.90
2022-07-31T12:08:06.585Z,4.80
2022-07-31T12:10:33.314Z,3.50
2022-07-31T12:13:02.329Z,4.30
2022-07-31T12:15:29.147Z,4.33
2022-07-31T12:18:04.107Z,4.90
2022-07-31T12:20:36.268Z,4.53
2022-07-31T12:23:04.919Z,3.93
2022-07-31T12:25:42.257Z,5.40
2022-07-31T12:28:10.055Z,4.13
2022-07-31T12:30:36.997Z,4.70
2022-07-31T12:33:08.029Z,3.40
2022-07-31T12:35:55.669Z,3.80
2022-07-31T12:38:44.850Z,3.47
2022-07-31T12:41:13.604Z,4.70
2022-07-31T12:43:50.232Z,4.57
2022-07-31T12:46:22.785Z,5.20
2022-07-31T12:48:49.825Z,4.67
2022-07-31T12:51:18.567Z,4.97
2022-07-31T12:53:46.798Z,3.30
2022-07-31T12:56:14.063Z,3.80
2022-07-31T12:58:40.686Z,4.90
2022-07-31T13:01:07.392Z,4.00
2022-07-31T13:03:39.051Z,4.07
2022-07-31T13:06:12.220Z,3.97
2022-07-31T13:08:38.812Z,4.33
2022-07-31T13:11:05.443Z,4.50
2022-07-31T13:13:32.028Z,3.20
2022-07-31T13:15:58.673Z,5.20
2022-07-31T13:18:25.323Z,4.10
2022-07-31T13:20:54.652Z,4.27
2022-07-31T13:23:21.562Z,4.40
2022-07-31T13:25:48.201Z,3.80
2022-07-31T13:28:14.844Z,3.80
2022-07-31T13:30:41.609Z,4.17
2022-07-31T13:33:08.345Z,4.03
2022-07-31T13:35:35.038Z,4.10
2022-07-31T13:38:01.733Z,4.30
2022-07-31T13:40:46.924Z,4.03
2022-07-31T13:43:17.109Z,4.57
2022-07-31T13:45:44.011Z,3.60
2022-07-31T13:48:12.896Z,3.53
2022-07-31T13:50:42.081Z,3.70
2022-07-31T13:53:09.922Z,3.93
2022-07-31T13:55:36.741Z,3.07
2022-07-31T13:58:03.561Z,3.70
2022-07-31T14:00:30.605Z,3.77
2022-07-31T14:02:57.795Z,3.80
2022-07-31T14:05:26.767Z,3.47
2022-07-31T14:07:59.348Z,3.90
2022-07-31T14:10:48.452Z,4.07
2022-07-31T14:13:25.859Z,4.40
2022-07-31T14:15:52.583Z,4.07
2022-07-31T14:18:19.196Z,4.30
2022-07-31T14:20:46.311Z,3.70
2022-07-31T14:23:13.776Z,3.90
2022-07-31T14:25:40.914Z,3.47
2022-07-31T14:28:08.942Z,4.00
2022-07-31T14:30:37.110Z,3.47
2022-07-31T14:33:07.277Z,3.50
2022-07-31T14:35:33.937Z,3.90
2022-07-31T14:38:03.977Z,3.90
2022-07-31T14:40:31.125Z,3.70
2022-07-31T14:42:58.370Z,3.80
2022-07-31T14:45:25.129Z,4.27
2022-07-31T14:47:51.713Z,4.67
2022-07-31T14:50:19.712Z,4.20
2022-07-31T14:52:46.869Z,3.87
2022-07-31T14:55:13.754Z,4.23
2022-07-31T14:57:40.350Z,4.40
2022-07-31T15:00:14.153Z,4.80
2022-07-31T15:02:43.105Z,4.63
2022-07-31T15:06:41.581Z,4.10
2022-07-31T15:07:57.953Z,4.40
2022-07-31T15:10:24.721Z,4.70
2022-07-31T15:12:51.297Z,3.70
2022-07-31T15:15:18.013Z,4.00
2022-07-31T15:17:44.590Z,3.67
2022-07-31T15:20:11.583Z,3.80
2022-07-31T15:22:38.161Z,4.20
2022-07-31T15:25:05.197Z,4.30
2022-07-31T15:27:31.865Z,3.73
2022-07-31T15:30:03.301Z,3.80
2022-07-31T15:32:35.457Z,4.13
2022-07-31T15:35:02.302Z,4.33
2022-07-31T15:37:30.013Z,4.27
2022-07-31T15:40:02.042Z,3.90
2022-07-31T15:42:34.108Z,3.77
2022-07-31T15:45:01.047Z,3.63
2022-07-31T15:47:27.784Z,4.60
2022-07-31T15:49:54.467Z,4.20
2022-07-31T15:52:21.141Z,4.40
2022-07-31T15:54:51.673Z,4.80
2022-07-31T15:57:20.285Z,3.97
2022-07-31T15:59:46.888Z,3.60
2022-07-31T16:02:13.472Z,4.10
2022-07-31T16:04:48.582Z,3.47
2022-07-31T16:08:34.714Z,3.73
2022-07-31T16:10:15.733Z,3.80
2022-07-31T16:12:47.137Z,4.20
2022-07-31T16:15:14.133Z,3.63
2022-07-31T16:17:41.602Z,3.97
2022-07-31T16:20:11.743Z,3.60
2022-07-31T16:22:40.269Z,3.83
2022-07-31T16:25:08.433Z,3.60
2022-07-31T16:27:35.040Z,3.53
2022-07-31T16:30:02.836Z,3.90
2022-07-31T16:32:30.539Z,4.63
2022-07-31T16:35:00.951Z,3.30
2022-07-31T16:37:51.486Z,5.20
2022-07-31T16:40:28.875Z,3.53
2022-07-31T16:43:50.247Z,3.40
2022-07-31T16:45:53.214Z,3.80
2022-07-31T16:48:20.100Z,4.53
2022-07-31T16:50:48.265Z,4.80
2022-07-31T16:54:13.451Z,5.00
2022-07-31T16:56:07.545Z,5.23
2022-07-31T16:58:34.704Z,5.90
2022-07-31T17:01:03.831Z,4.70
2022-07-31T17:04:01.683Z,4.70
2022-07-31T17:06:17.071Z,4.67
2022-07-31T17:08:43.795Z,5.53
2022-07-31T17:11:10.472Z,5.33
2022-07-31T17:13:37.056Z,6.07
2022-07-31T17:16:03.952Z,5.47
2022-07-31T17:18:30.544Z,4.23
2022-07-31T17:20:57.177Z,5.00
2022-07-31T17:23:42.640Z,6.30
2022-07-31T17:26:21.583Z,6.93
2022-07-31T17:28:50.209Z,5.10
2022-07-31T17:31:17.117Z,4.80
2022-07-31T17:33:59.554Z,4.63
2022-07-31T17:36:28.869Z,8.77
2022-07-31T17:38:57.039Z,6.03
2022-07-31T17:41:24.730Z,7.70
2022-07-31T17:43:53.638Z,6.93
2022-07-31T17:46:28.259Z,6.50
2022-07-31T17:49:02.003Z,8.43
2022-07-31T17:51:28.771Z,5.80
2022-07-31T17:53:59.686Z,7.80
2022-07-31T17:56:26.896Z,9.90
2022-07-31T17:58:53.807Z,9.97
2022-07-31T18:01:23.310Z,8.20
2022-07-31T18:03:52.319Z,9.20
2022-07-31T18:06:18.925Z,6.10
2022-07-31T18:08:45.580Z,6.00
2022-07-31T18:11:12.164Z,10.40
2022-07-31T18:13:48.274Z,5.90
2022-07-31T18:16:18.464Z,6.37
2022-07-31T18:18:45.419Z,7.33
2022-07-31T18:21:12.342Z,8.10
2022-07-31T18:23:47.136Z,8.20
2022-07-31T18:26:14.914Z,6.07
2022-07-31T18:28:41.820Z,5.93
2022-07-31T18:31:32.311Z,5.80
2022-07-31T18:33:55.355Z,5.67
2022-07-31T18:36:21.992Z,5.70
2022-07-31T18:38:48.629Z,5.10
2022-07-31T18:41:15.220Z,4.73
2022-07-31T18:43:41.801Z,4.93
2022-07-31T18:46:08.406Z,4.70
2022-07-31T18:48:35.113Z,5.57
2022-07-31T18:51:04.884Z,4.40
2022-07-31T18:53:32.659Z,4.77
2022-07-31T18:55:59.259Z,4.30
2022-07-31T18:58:25.908Z,5.23
2022-07-31T19:00:55.307Z,4.60
2022-07-31T19:03:26.214Z,3.10
2022-07-31T19:05:53.535Z,4.60
2022-07-31T19:08:21.002Z,4.93
2022-07-31T19:10:49.450Z,5.03
2022-07-31T19:13:19.255Z,5.10
2022-07-31T19:15:47.364Z,4.20
2022-07-31T19:18:15.257Z,5.47
2022-07-31T19:21:00.064Z,3.80
2022-07-31T19:23:31.638Z,4.80
2022-07-31T19:26:04.027Z,4.80
2022-07-31T19:28:32.683Z,5.80
2022-07-31T19:30:59.831Z,5.47
2022-07-31T19:33:26.677Z,3.20
2022-07-31T19:36:00.313Z,3.73
2022-07-31T19:38:28.974Z,4.00
2022-07-31T19:40:55.666Z,3.50
2022-07-31T19:43:22.302Z,4.07
2022-07-31T19:46:09.474Z,3.47
2022-07-31T19:48:36.458Z,4.13
2022-07-31T19:51:03.724Z,3.40
2022-07-31T19:53:30.438Z,4.10
2022-07-31T19:55:57.113Z,3.40
2022-07-31T19:58:23.774Z,5.40
2022-07-31T20:00:50.424Z,3.40
2022-07-31T20:03:17.131Z,4.03
2022-07-31T20:05:43.847Z,4.47
2022-07-31T20:08:10.539Z,6.57
2022-07-31T20:10:37.199Z,4.20
2022-07-31T20:13:04.147Z,3.90
2022-07-31T20:15:50.895Z,4.40
2022-07-31T20:18:27.945Z,4.53
2022-07-31T20:20:57.575Z,4.63
2022-07-31T20:23:25.354Z,3.87
2022-07-31T20:25:52.187Z,5.87
2022-07-31T20:28:18.804Z,4.10
2022-07-31T20:30:45.376Z,5.10
2022-07-31T20:33:13.229Z,6.33
2022-07-31T20:35:48.866Z,4.53
2022-07-31T20:38:22.730Z,3.97
2022-07-31T20:40:54.240Z,3.40
2022-07-31T20:43:26.610Z,4.90
2022-07-31T20:45:57.003Z,3.87
2022-07-31T20:48:25.977Z,4.30
2022-07-31T20:50:52.910Z,7.60
2022-07-31T20:53:20.751Z,4.80
2022-07-31T20:55:49.642Z,3.63
2022-07-31T20:58:23.684Z,6.57
2022-07-31T21:00:51.736Z,4.50
2022-07-31T21:03:18.673Z,5.37
2022-07-31T21:05:45.910Z,4.17
2022-07-31T21:08:12.764Z,6.00
2022-07-31T21:10:40.426Z,6.37
2022-07-31T21:13:07.168Z,6.17
2022-07-31T21:15:43.858Z,6.70
2022-07-31T21:18:16.368Z,5.23
2022-07-31T21:20:51.912Z,7.27
2022-07-31T21:23:24.538Z,7.50
2022-07-31T21:25:52.668Z,6.43
2022-07-31T21:28:19.891Z,5.57
2022-07-31T21:30:47.006Z,5.67
2022-07-31T21:33:13.684Z,4.80
2022-07-31T21:35:40.575Z,4.93
2022-07-31T21:38:11.843Z,5.97
2022-07-31T21:40:39.147Z,7.47
2022-07-31T21:43:06.136Z,6.10
2022-07-31T21:45:43.423Z,4.80
2022-07-31T21:48:22.058Z,4.20
2022-07-31T21:50:49.128Z,6.37
2022-07-31T21:53:15.777Z,5.50
2022-07-31T21:55:42.537Z,4.07
2022-07-31T21:58:09.480Z,8.57
2022-07-31T22:00:36.948Z,6.33
2022-07-31T22:03:04.642Z,4.87
2022-07-31T22:05:50.550Z,7.43
2022-07-31T22:08:17.651Z,4.70
2022-07-31T22:10:44.373Z,8.47
2022-07-31T22:13:11.448Z,9.17
2022-07-31T22:15:51.407Z,7.97
2022-07-31T22:18:26.769Z,7.83
2022-07-31T22:20:53.884Z,8.00
2022-07-31T22:23:20.751Z,5.07
2022-07-31T22:25:48.895Z,6.50
2022-07-31T22:28:18.694Z,6.40
2022-07-31T22:30:45.642Z,7.67
2022-07-31T22:33:12.583Z,6.90
2022-07-31T22:35:40.585Z,7.80
2022-07-31T22:38:08.033Z,7.33
2022-07-31T22:40:34.776Z,5.67
2022-07-31T22:43:02.345Z,8.63
2022-07-31T22:45:29.580Z,5.00
2022-07-31T22:47:57.327Z,7.23
2022-07-31T22:50:23.975Z,7.90
2022-07-31T22:52:50.589Z,9.50
2022-07-31T22:55:17.357Z,9.63
2022-07-31T22:57:44.826Z,5.80
2022-07-31T23:00:14.630Z,8.90
2022-07-31T23:02:42.321Z,5.50
2022-07-31T23:05:09.524Z,6.57
2022-07-31T23:07:36.365Z,7.57
2022-07-31T23:10:05.138Z,6.20
2022-07-31T23:12:31.724Z,8.20
2022-07-31T23:14:58.384Z,7.43
2022-07-31T23:17:25.049Z,10.90
2022-07-31T23:19:54.389Z,7.50
2022-07-31T23:22:33.763Z,5.37
2022-07-31T23:25:03.101Z,9.87
2022-07-31T23:27:29.726Z,6.00
2022-07-31T23:29:56.359Z,8.20
2022-07-31T23:32:22.942Z,7.70
2022-07-31T23:34:49.523Z,7.00
2022-07-31T23:37:16.093Z,6.60
2022-07-31T23:39:42.706Z,7.07
2022-07-31T23:42:28.138Z,8.13
2022-07-31T23:44:54.778Z,5.80
2022-07-31T23:47:24.100Z,7.87
2022-07-31T23:50:10.660Z,9.07
2022-07-31T23:52:37.216Z,6.40
2022-07-31T23:55:03.907Z,12.00
2022-07-31T23:57:34.687Z,12.73
